sensor_id;sensor_type;location;lat;lon;timestamp;pressure;altitude;pressure_sealevel;temperature;humidity
15558;BME280;7880;50.110;9.372;2023-07-24T15:43:36;23.77986836889759;;;23.5;98.3675021450016
15558;BME280;7880;50.110;9.372;2023-07-24T15:48:40;23.06879878990003;;;22.937;100.0
15558;BME280;7880;50.110;9.372;2023-07-24T15:53:48;23.26547703074757;;;23.062;99.66967543094886
15558;BME280;7880;50.110;9.372;2023-07-24T15:58:50;23.74456690578372;;;23.437;99.2400500880691
15558;BME280;7880;50.110;9.372;2023-07-24T16:03:56;22.574583625613013;;;22.812;100.0
15558;BME280;7880;50.110;9.372;2023-07-24T16:09:02;21.777793634455882;;;22.062;100.0
15558;BME280;7880;50.110;9.372;2023-07-24T16:14:08;21.95934008192853;;;21.937;100.0
15558;BME280;7880;50.110;9.372;2023-07-24T16:19:13;21.616419331129872;;;21.75;100.0
15558;BME280;7880;50.110;9.372;2023-07-24T16:24:18;21.485302929120373;;;21.562;100.0
15558;BME280;7880;50.110;9.372;2023-07-24T16:29:34;21.495388799213107;;;21.5;100.0
15558;BME280;7880;50.110;9.372;2023-07-24T16:34:29;21.1121265540889;;;21.312;100.0
15558;BME280;7880;50.110;9.372;2023-07-24T16:39:35;17.824208996404195;;;18.687;100.0
15558;BME280;7880;50.110;9.372;2023-07-24T16:44:41;17.19891352467821;;;17.562;100.0
15558;BME280;7880;50.110;9.372;2023-07-24T16:49:45;17.672927423525834;;;17.812;100.0
15558;BME280;7880;50.110;9.372;2023-07-24T16:54:51;18.323440045327878;;;18.312;100.0
15558;BME280;7880;50.110;9.372;2023-07-24T16:59:55;17.577115896181205;;;17.937;100.0
15558;BME280;7880;50.110;9.372;2023-07-24T17:05:00;17.854465342412006;;;17.937;100.0
15558;BME280;7880;50.110;9.372;2023-07-24T17:10:08;18.212499565724283;;;18.187;100.0
15558;BME280;7880;50.110;9.372;2023-07-24T17:15:11;18.247798793955006;;;18.312;100.0
15558;BME280;7880;50.110;9.372;2023-07-24T17:20:25;18.570535256160657;;;18.562;100.0
15558;BME280;7880;50.110;9.372;2023-07-24T17:25:20;18.53019313319237;;;18.687;100.0
15558;BME280;7880;50.110;9.372;2023-07-24T17:30:25;18.802502824697875;;;18.75;100.0
15558;BME280;7880;50.110;9.372;2023-07-24T17:35:33;18.97395751029835;;;18.937;100.0
15558;BME280;7880;50.110;9.372;2023-07-24T17:40:38;18.91848683990538;;;18.937;100.0
15558;BME280;7880;50.110;9.372;2023-07-24T17:45:43;18.968914720625616;;;19.0;100.0
15558;BME280;7880;50.110;9.372;2023-07-24T17:50:48;19.03447100907215;;;19.0;100.0
15558;BME280;7880;50.110;9.372;2023-07-24T17:55:52;19.195840544026577;;;19.187;100.0
15558;BME280;7880;50.110;9.372;2023-07-24T18:00:58;19.15045533219818;;;19.125;100.0
15558;BME280;7880;50.110;9.372;2023-07-24T18:06:02;19.0243854230328;;;19.125;100.0
15558;BME280;7880;50.110;9.372;2023-07-24T18:11:13;19.084898956731195;;;19.125;100.0
15558;BME280;7880;50.110;9.372;2023-07-24T18:16:17;19.115155739296462;;;19.125;100.0
15558;BME280;7880;50.110;9.372;2023-07-24T18:21:23;19.039513802528383;;;19.062;100.0
15558;BME280;7880;50.110;9.372;2023-07-24T18:26:31;18.79241726543405;;;18.937;100.0
15558;BME280;7880;50.110;9.372;2023-07-24T18:31:36;18.691561736824223;;;18.75;100.0
15558;BME280;7880;50.110;9.372;2023-07-24T18:36:40;18.62600570565555;;;18.687;100.0
15558;BME280;7880;50.110;9.372;2023-07-24T18:41:46;18.439423424616688;;;18.562;100.0
15558;BME280;7880;50.110;9.372;2023-07-24T18:46:51;18.383953093574384;;;18.5;100.0
15558;BME280;7880;50.110;9.372;2023-07-24T18:51:56;18.13685841039405;;;18.312;100.0
15558;BME280;7880;50.110;9.372;2023-07-24T18:57:10;18.192328584566713;;;18.25;100.0
15558;BME280;7880;50.110;9.372;2023-07-24T19:02:14;17.935148982988903;;;18.062;100.0
15558;BME280;7880;50.110;9.372;2023-07-24T19:07:14;17.97549083121703;;;18.125;100.0
15558;BME280;7880;50.110;9.372;2023-07-24T19:12:19;17.87463624557131;;;18.062;100.0
15558;BME280;7880;50.110;9.372;2023-07-24T19:17:49;17.60737215662375;;;17.875;100.0
15558;BME280;7880;50.110;9.372;2023-07-24T19:22:46;17.642671140382298;;;17.812;100.0
15558;BME280;7880;50.110;9.372;2023-07-24T19:28:02;17.208998900005827;;;17.625;100.0
15558;BME280;7880;50.110;9.372;2023-07-24T19:32:54;16.83079812193755;;;17.375;100.0
15558;BME280;7880;50.110;9.372;2023-07-24T19:37:59;16.82071279026568;;;17.125;100.0
15558;BME280;7880;50.110;9.372;2023-07-24T19:43:05;16.891310136415996;;;17.187;100.0
15558;BME280;7880;50.110;9.372;2023-07-24T19:48:10;16.654304985754425;;;17.125;100.0
15558;BME280;7880;50.110;9.372;2023-07-24T19:53:17;16.669432954886;;;17.125;100.0
15558;BME280;7880;50.110;9.372;2023-07-24T19:58:22;16.43242840609164;;;16.937;100.0
15558;BME280;7880;50.110;9.372;2023-07-24T20:03:26;16.634134364320197;;;16.937;100.0
15558;BME280;7880;50.110;9.372;2023-07-24T20:08:33;16.61900640130043;;;17.0;100.0
15558;BME280;7880;50.110;9.372;2023-07-24T20:13:38;16.684560926636912;;;16.937;100.0
15558;BME280;7880;50.110;9.372;2023-07-24T20:18:43;16.81062745975796;;;17.0;100.0
15558;BME280;7880;50.110;9.372;2023-07-24T20:23:48;16.654304985754425;;;16.812;100.0
15558;BME280;7880;50.110;9.372;2023-07-24T20:28:59;16.472769560484448;;;16.812;100.0
15558;BME280;7880;50.110;9.372;2023-07-24T20:33:59;16.35678879180923;;;16.75;100.0
15558;BME280;7880;50.110;9.372;2023-07-24T20:39:05;16.32653296443168;;;16.687;100.0
15558;BME280;7880;50.110;9.372;2023-07-24T20:44:18;16.170211356558138;;;16.562;100.0
15558;BME280;7880;50.110;9.372;2023-07-24T20:48:00;16.26602134110872;;;16.562;100.0
15558;BME280;7880;50.110;9.372;2023-07-24T20:53:05;16.180296613142126;;;16.562;100.0
15558;BME280;7880;50.110;9.372;2023-07-24T20:58:12;16.109699841501424;;;16.562;100.0
15558;BME280;7880;50.110;9.372;2023-07-24T21:03:20;16.119785091100493;;;16.5;100.0
15558;BME280;7880;50.110;9.372;2023-07-24T21:08:23;16.03910312690423;;;16.437;100.0
15558;BME280;7880;50.110;9.372;2023-07-24T21:13:27;15.731503821909428;;;16.25;100.0
15558;BME280;7880;50.110;9.372;2023-07-24T21:19:13;15.827313325373689;;;16.187;100.0
15558;BME280;7880;50.110;9.372;2023-07-24T21:24:18;15.887824644852662;;;16.125;100.0
15558;BME280;7880;50.110;9.372;2023-07-24T21:29:23;15.393650095543126;;;15.937;100.0
15558;BME280;7880;50.110;9.372;2023-07-24T21:34:27;15.393650095543126;;;15.75;100.0
15558;BME280;7880;50.110;9.372;2023-07-24T21:39:32;15.363394601695472;;;15.687;100.0
15558;BME280;7880;50.110;9.372;2023-07-24T21:44:38;15.24237273107865;;;15.625;100.0
15558;BME280;7880;50.110;9.372;2023-07-24T21:49:48;15.191947001131485;;;15.5;100.0
15558;BME280;7880;50.110;9.372;2023-07-24T21:54:49;15.156649007485248;;;15.562;100.0
15558;BME280;7880;50.110;9.372;2023-07-24T21:59:53;15.12135102809989;;;15.437;100.0
15558;BME280;7880;50.110;9.372;2023-07-24T22:04:59;14.944861345086247;;;15.312;100.0
15558;BME280;7880;50.110;9.372;2023-07-24T22:10:08;14.909563451266148;;;15.375;100.0
15558;BME280;7880;50.110;9.372;2023-07-24T22:15:16;14.919648562330986;;;15.375;100.0
15558;BME280;7880;50.110;9.372;2023-07-24T22:20:19;14.849052809324348;;;15.187;100.0
15558;BME280;7880;50.110;9.372;2023-07-24T22:25:24;14.460777187440545;;;14.875;100.0
15558;BME280;7880;50.110;9.372;2023-07-24T22:30:29;14.511202495382168;;;14.937;100.0
15558;BME280;7880;50.110;9.372;2023-07-24T22:35:37;14.556585297413402;;;14.937;100.0
15558;BME280;7880;50.110;9.372;2023-07-24T22:40:41;14.491032368713059;;;14.875;100.0
15558;BME280;7880;50.110;9.372;2023-07-24T22:45:46;14.475904776767129;;;14.812;100.0
15558;BME280;7880;50.110;9.372;2023-07-24T22:50:51;14.218736114446074;;;14.75;100.0
15558;BME280;7880;50.110;9.372;2023-07-24T22:55:57;14.259076246712358;;;14.812;100.0
15558;BME280;7880;50.110;9.372;2023-07-24T23:01:09;14.324629001371795;;;14.75;100.0
15558;BME280;7880;50.110;9.372;2023-07-24T23:06:08;14.349841612414457;;;14.75;100.0
15558;BME280;7880;50.110;9.372;2023-07-24T23:11:13;14.254033729160437;;;14.812;100.0
15558;BME280;7880;50.110;9.372;2023-07-24T23:16:20;14.254033729160437;;;14.625;100.0
15558;BME280;7880;50.110;9.372;2023-07-24T23:21:26;14.364969182532514;;;14.687;100.0
15558;BME280;7880;50.110;9.372;2023-07-24T23:26:31;14.223778629960725;;;14.562;100.0
15558;BME280;7880;50.110;9.372;2023-07-24T23:31:40;14.274203801114345;;;14.5;100.0
15558;BME280;7880;50.110;9.372;2023-07-24T23:36:40;14.243948694929713;;;14.5;100.0
15558;BME280;7880;50.110;9.372;2023-07-24T23:41:47;14.385139280097793;;;14.687;100.0
15558;BME280;7880;50.110;9.372;2023-07-24T23:46:52;14.28428883883753;;;14.625;100.0
15558;BME280;7880;50.110;9.372;2023-07-24T23:51:55;14.203608569648349;;;14.437;100.0
15558;BME280;7880;50.110;9.372;2023-07-24T23:57:21;14.460777187440545;;;14.687;100.0
